Saint Paul Park, Minnesota
Current Conditions -  °F | °C
As of 11:50 PM on Sunday 19 Oct 2014 (Local Time) from KSGS Reporting Station
Clear Clear  
Wind Chill: 57°   Ceiling: Unl
Heat Index: 57°   Visibility: 10mi
Dew Point: 42°   Wind: 12mph
Humidity: 57%   Direction: 320°NW
Pressure: 29.85"   Gusts: 17mph
Location:  44.84°N, 92.99°W
Report Text: KSGS 200450Z AUTO 32010G15KT 10SM CLR 14/06 A2985 RMK AO2 T01400055
Loading
Personal Weather Stations






























Interactive Weather Map
Tropical Storm Tracking
New forecast layout! Learn more

10-Day Weather Forecast

Advertisements
Track Severe Weather on mobile